Time;durP1;ratioP1;P1;durP2;ratioP2;P2;SDS_P1;SDS_P2;PMS_P1;PMS_P2;Temp;Humidity;BMP_temperature;BMP_pressure;BME280_temperature;BME280_humidity;BME280_pressure;Samples;Min_cycle;Max_cycle;Signal;HPM_P1;HPM_P2
2022/03/29 00:00:33;;;;;;;23.95;11.88;;;;;;;;;;10429974;28;20059;-73
2022/03/29 00:05:34;;;;;;;29.73;12.00;;;;;;;;;;10429514;28;20025;-72
2022/03/29 00:10:34;;;;;;;32.20;12.68;;;;;;;;;;10447139;28;20027;-74
2022/03/29 00:15:35;;;;;;;31.60;12.38;;;;;;;;;;10447621;28;20100;-73
2022/03/29 00:20:35;;;;;;;25.23;12.37;;;;;;;;;;10434385;28;20013;-74
2022/03/29 00:25:36;;;;;;;19.63;11.48;;;;;;;;;;10431168;28;20271;-72
2022/03/29 00:30:36;;;;;;;22.37;12.50;;;;;;;;;;10442306;28;20020;-72
2022/03/29 00:35:36;;;;;;;30.00;12.00;;;;;;;;;;10429342;28;20092;-74
2022/03/29 00:40:36;;;;;;;23.93;12.87;;;;;;;;;;10430056;28;20013;-75
2022/03/29 00:45:37;;;;;;;29.17;13.30;;;;;;;;;;10428894;28;20090;-74
2022/03/29 00:50:38;;;;;;;26.90;11.40;;;;;;;;;;10412407;28;20032;-72
2022/03/29 00:55:38;;;;;;;28.40;11.15;;;;;;;;;;10447620;28;20317;-74
2022/03/29 01:00:39;;;;;;;22.23;12.03;;;;;;;;;;10428321;28;20101;-71
2022/03/29 01:05:39;;;;;;;20.65;11.25;;;;;;;;;;10428687;28;20263;-74
2022/03/29 01:10:43;;;;;;;17.60;11.10;;;;;;;;;;10428236;28;20029;-74
2022/03/29 01:15:44;;;;;;;23.10;11.05;;;;;;;;;;10428474;28;20051;-71
2022/03/29 01:20:46;;;;;;;20.42;10.80;;;;;;;;;;10428592;28;20031;-73
2022/03/29 01:25:50;;;;;;;23.73;11.43;;;;;;;;;;10464640;28;20029;-70
2022/03/29 01:30:51;;;;;;;26.65;10.85;;;;;;;;;;10459615;28;20357;-74
2022/03/29 01:35:52;;;;;;;23.13;10.88;;;;;;;;;;10435592;28;20178;-73
2022/03/29 01:40:59;;;;;;;27.17;11.85;;;;;;;;;;10435954;28;20544;-71
2022/03/29 01:45:59;;;;;;;22.27;10.90;;;;;;;;;;10418549;28;20025;-71
2022/03/29 01:50:59;;;;;;;27.60;12.43;;;;;;;;;;10435315;28;20017;-72
2022/03/29 01:56:00;;;;;;;19.87;12.43;;;;;;;;;;10435304;28;20021;-74
2022/03/29 02:01:00;;;;;;;25.33;12.15;;;;;;;;;;10434748;28;20303;-71
2022/03/29 02:06:01;;;;;;;26.53;11.80;;;;;;;;;;10434850;28;20581;-71
2022/03/29 02:11:01;;;;;;;37.08;12.82;;;;;;;;;;10452139;28;20029;-71
2022/03/29 02:16:01;;;;;;;27.43;12.50;;;;;;;;;;10434376;28;20021;-71
2022/03/29 02:21:02;;;;;;;27.23;12.03;;;;;;;;;;10433839;28;20029;-71
2022/03/29 02:26:04;;;;;;;44.60;12.52;;;;;;;;;;10434502;28;20025;-74
2022/03/29 02:31:04;;;;;;;36.40;11.82;;;;;;;;;;10433685;28;20636;-73
2022/03/29 02:36:04;;;;;;;55.47;12.80;;;;;;;;;;10434492;28;20017;-71
2022/03/29 02:41:05;;;;;;;51.07;12.93;;;;;;;;;;10434589;28;20252;-72
2022/03/29 02:46:05;;;;;;;37.67;13.85;;;;;;;;;;10434419;28;20505;-73
2022/03/29 02:51:06;;;;;;;33.53;12.70;;;;;;;;;;10432572;28;20376;-71
2022/03/29 02:56:06;;;;;;;54.22;14.98;;;;;;;;;;10432785;28;20402;-71
2022/03/29 03:01:06;;;;;;;83.25;14.85;;;;;;;;;;10432287;28;20110;-71
2022/03/29 03:06:07;;;;;;;31.37;13.07;;;;;;;;;;10432619;28;20035;-72
2022/03/29 03:11:07;;;;;;;33.10;14.13;;;;;;;;;;10449844;28;20025;-71
2022/03/29 03:16:08;;;;;;;49.53;13.80;;;;;;;;;;10454845;28;20803;-76
2022/03/29 03:21:09;;;;;;;53.38;15.02;;;;;;;;;;10473178;28;20058;-70
2022/03/29 03:26:10;;;;;;;59.75;14.75;;;;;;;;;;10472591;28;20487;-71
2022/03/29 03:31:10;;;;;;;57.03;15.63;;;;;;;;;;10472420;28;20020;-71
2022/03/29 03:36:10;;;;;;;25.98;12.20;;;;;;;;;;10465431;28;20358;-79
2022/03/29 03:41:11;;;;;;;44.83;13.53;;;;;;;;;;10430611;28;20019;-73
2022/03/29 03:46:11;;;;;;;89.55;18.35;;;;;;;;;;10430678;28;20275;-75
2022/03/29 03:51:11;;;;;;;56.63;15.17;;;;;;;;;;10448118;28;20029;-71
2022/03/29 03:56:11;;;;;;;61.43;16.33;;;;;;;;;;10413285;28;20410;-72
2022/03/29 04:01:12;;;;;;;39.30;13.75;;;;;;;;;;10430088;28;20053;-70
2022/03/29 04:06:12;;;;;;;40.30;13.60;;;;;;;;;;10439186;28;20024;-75
2022/03/29 04:11:12;;;;;;;82.40;16.30;;;;;;;;;;10471046;28;20016;-71
2022/03/29 04:16:13;;;;;;;53.65;13.77;;;;;;;;;;10471836;28;20070;-76
2022/03/29 04:21:13;;;;;;;87.85;17.08;;;;;;;;;;10471057;28;20091;-73
2022/03/29 04:26:13;;;;;;;124.47;22.50;;;;;;;;;;10471166;28;20616;-72
2022/03/29 04:31:14;;;;;;;129.57;23.10;;;;;;;;;;10469829;28;20027;-75
2022/03/29 04:36:14;;;;;;;107.30;18.95;;;;;;;;;;10484043;28;20089;-73
2022/03/29 04:41:14;;;;;;;115.40;19.38;;;;;;;;;;10493900;28;20056;-72
2022/03/29 04:46:14;;;;;;;151.43;21.40;;;;;;;;;;10475535;28;20124;-73
2022/03/29 04:51:15;;;;;;;62.95;17.60;;;;;;;;;;10466616;28;20117;-72
2022/03/29 04:56:15;;;;;;;54.77;20.13;;;;;;;;;;10449272;28;20535;-74
2022/03/29 05:01:15;;;;;;;34.13;13.30;;;;;;;;;;10436218;28;20045;-73
2022/03/29 05:06:16;;;;;;;22.47;12.03;;;;;;;;;;10456610;28;20040;-76
2022/03/29 05:11:16;;;;;;;33.15;11.90;;;;;;;;;;10437972;28;20021;-71
2022/03/29 05:16:16;;;;;;;23.60;11.45;;;;;;;;;;10468736;28;20454;-72
2022/03/29 05:21:17;;;;;;;37.78;10.93;;;;;;;;;;10477148;28;20021;-74
2022/03/29 05:26:17;;;;;;;17.43;10.83;;;;;;;;;;10495494;28;20020;-74
2022/03/29 05:31:17;;;;;;;27.17;12.33;;;;;;;;;;10476303;28;20522;-71
2022/03/29 05:36:18;;;;;;;17.80;10.18;;;;;;;;;;10476458;28;20497;-76
2022/03/29 05:41:21;;;;;;;27.40;12.57;;;;;;;;;;10476415;28;20501;-75
2022/03/29 05:51:40;;;;;;;31.77;13.55;;;;;;;;;;10493677;28;20012;-75
2022/03/29 05:56:40;;;;;;;28.10;13.73;;;;;;;;;;10475738;28;20390;-71
2022/03/29 06:01:41;;;;;;;27.60;13.07;;;;;;;;;;10475145;28;20139;-74
2022/03/29 06:06:42;;;;;;;28.63;12.35;;;;;;;;;;10473963;28;20357;-70
2022/03/29 06:11:42;;;;;;;26.77;12.73;;;;;;;;;;10458220;28;20488;-72
2022/03/29 06:16:43;;;;;;;28.08;13.27;;;;;;;;;;10475218;28;20061;-71
2022/03/29 06:21:43;;;;;;;26.10;12.35;;;;;;;;;;10492253;28;20464;-75
2022/03/29 06:26:44;;;;;;;33.60;10.75;;;;;;;;;;10473724;28;20036;-71
2022/03/29 06:31:44;;;;;;;24.53;12.73;;;;;;;;;;10474595;28;20086;-71
2022/03/29 06:36:45;;;;;;;27.15;12.77;;;;;;;;;;10474513;28;20021;-70
2022/03/29 06:41:46;;;;;;;23.50;13.57;;;;;;;;;;10492660;28;20028;-71
2022/03/29 06:46:49;;;;;;;24.93;13.00;;;;;;;;;;10474275;28;20058;-76
2022/03/29 06:51:50;;;;;;;26.73;11.15;;;;;;;;;;10473950;28;20020;-75
2022/03/29 06:56:50;;;;;;;30.00;11.43;;;;;;;;;;10473487;28;20445;-74
2022/03/29 07:01:50;;;;;;;18.90;11.80;;;;;;;;;;10472376;28;20057;-72
2022/03/29 07:06:50;;;;;;;25.17;13.05;;;;;;;;;;10473209;28;20063;-71
2022/03/29 07:11:51;;;;;;;29.40;13.85;;;;;;;;;;10456470;28;20016;-72
2022/03/29 07:16:51;;;;;;;26.00;12.27;;;;;;;;;;10472989;28;20431;-70
2022/03/29 07:21:51;;;;;;;24.77;13.23;;;;;;;;;;10472148;28;20458;-73
2022/03/29 07:26:52;;;;;;;25.70;11.53;;;;;;;;;;10471714;28;20024;-70
2022/03/29 07:31:52;;;;;;;26.05;10.90;;;;;;;;;;10472144;28;20032;-71
2022/03/29 07:36:56;;;;;;;25.80;11.15;;;;;;;;;;10471795;28;20020;-74
2022/03/29 07:41:56;;;;;;;17.90;9.95;;;;;;;;;;10490125;28;20021;-74
2022/03/29 07:46:56;;;;;;;23.23;10.68;;;;;;;;;;10471879;28;20028;-76
2022/03/29 07:51:57;;;;;;;20.08;10.48;;;;;;;;;;10489474;28;20123;-74
2022/03/29 07:56:57;;;;;;;23.67;9.43;;;;;;;;;;10471708;28;20025;-72
2022/03/29 08:01:57;;;;;;;21.27;8.88;;;;;;;;;;10450457;28;20041;-69
2022/03/29 08:06:58;;;;;;;16.13;8.07;;;;;;;;;;10447519;28;20013;-72
2022/03/29 08:11:59;;;;;;;21.35;8.80;;;;;;;;;;10429714;28;20032;-72
2022/03/29 08:17:00;;;;;;;13.52;8.32;;;;;;;;;;10428877;28;20128;-73
2022/03/29 08:22:01;;;;;;;15.00;8.45;;;;;;;;;;10447107;28;20024;-75
2022/03/29 08:27:01;;;;;;;17.02;6.40;;;;;;;;;;10446954;28;20028;-73
2022/03/29 08:32:01;;;;;;;12.40;7.40;;;;;;;;;;10439382;28;20048;-71
2022/03/29 08:37:02;;;;;;;18.00;7.67;;;;;;;;;;10447035;28;20032;-71
2022/03/29 08:42:05;;;;;;;12.93;6.83;;;;;;;;;;10428723;28;20032;-70
2022/03/29 08:47:07;;;;;;;11.70;6.40;;;;;;;;;;10428870;28;20017;-74
2022/03/29 08:52:07;;;;;;;14.90;6.85;;;;;;;;;;10428766;28;20067;-72
2022/03/29 08:57:08;;;;;;;14.23;6.18;;;;;;;;;;10449300;28;20131;-74
2022/03/29 09:02:18;;;;;;;15.45;7.07;;;;;;;;;;10469497;28;20083;-75
2022/03/29 09:07:20;;;;;;;18.63;7.68;;;;;;;;;;10469314;28;20316;-71
2022/03/29 09:12:21;;;;;;;10.70;5.93;;;;;;;;;;10468851;28;20486;-73
2022/03/29 09:17:32;;;;;;;20.50;7.25;;;;;;;;;;10469339;28;20025;-72
2022/03/29 09:22:42;;;;;;;11.27;5.78;;;;;;;;;;10452786;28;20028;-76
2022/03/29 09:28:00;;;;;;;15.02;6.20;;;;;;;;;;10468945;28;20024;-72
2022/03/29 09:33:04;;;;;;;;;;;;;;;;;;10469254;28;20016;-79
2022/03/29 09:38:19;;;;;;;12.48;5.47;;;;;;;;;;10470438;28;19908;-74
2022/03/29 09:43:24;;;;;;;18.52;6.05;;;;;;;;;;10452937;28;20347;-72
2022/03/29 09:48:32;;;;;;;12.93;5.38;;;;;;;;;;10475993;28;20108;-75
2022/03/29 09:53:36;;;;;;;16.77;5.85;;;;;;;;;;10493666;28;20025;-75
2022/03/29 09:58:37;;;;;;;13.23;4.43;;;;;;;;;;10476228;28;20021;-72
2022/03/29 10:03:37;;;;;;;14.13;4.85;;;;;;;;;;10475527;28;20791;-74
2022/03/29 10:13:59;;;;;;;7.75;3.88;;;;;;;;;;10446036;28;20021;-71
2022/03/29 10:19:00;;;;;;;13.60;3.72;;;;;;;;;;10433946;28;20100;-71
2022/03/29 10:24:00;;;;;;;15.90;4.63;;;;;;;;;;10451220;28;20479;-72
2022/03/29 10:29:01;;;;;;;13.37;5.13;;;;;;;;;;10433518;28;20351;-76
2022/03/29 10:34:19;;;;;;;12.75;4.95;;;;;;;;;;10433468;28;20025;-74
2022/03/29 10:39:20;;;;;;;12.93;4.93;;;;;;;;;;10452683;28;20036;-72
2022/03/29 10:44:20;;;;;;;18.45;4.75;;;;;;;;;;10492827;28;20493;-75
2022/03/29 10:49:25;;;;;;;20.23;5.50;;;;;;;;;;10473923;28;20016;-74
2022/03/29 10:54:25;;;;;;;23.08;5.43;;;;;;;;;;10473837;28;20029;-72
2022/03/29 10:59:26;;;;;;;14.48;5.53;;;;;;;;;;10473719;28;20021;-74
2022/03/29 11:04:28;;;;;;;19.90;5.50;;;;;;;;;;10473781;28;20059;-78
2022/03/29 11:09:29;;;;;;;18.15;5.35;;;;;;;;;;10473020;28;20097;-72
2022/03/29 11:14:29;;;;;;;20.30;6.60;;;;;;;;;;10472645;28;20107;-72
2022/03/29 11:19:40;;;;;;;19.48;6.90;;;;;;;;;;10473808;28;20025;-73
2022/03/29 11:24:40;;;;;;;18.70;5.35;;;;;;;;;;10490550;28;20028;-72
2022/03/29 11:29:40;;;;;;;14.20;4.50;;;;;;;;;;10472306;28;20024;-72
2022/03/29 11:34:40;;;;;;;11.90;4.60;;;;;;;;;;10471982;28;20088;-70
2022/03/29 11:39:41;;;;;;;17.77;4.50;;;;;;;;;;10472303;28;20065;-74
2022/03/29 11:44:46;;;;;;;13.43;4.20;;;;;;;;;;10471579;28;20020;-71
2022/03/29 11:49:49;;;;;;;20.48;4.53;;;;;;;;;;10471205;28;20127;-73
2022/03/29 11:54:53;;;;;;;12.35;4.25;;;;;;;;;;10471870;28;20078;-74
2022/03/29 11:59:54;;;;;;;23.92;4.72;;;;;;;;;;10489252;28;20024;-72
2022/03/29 12:04:56;;;;;;;16.85;4.30;;;;;;;;;;10465909;28;20098;-71
2022/03/29 12:09:56;;;;;;;11.43;4.20;;;;;;;;;;10429656;28;20083;-72
2022/03/29 12:15:01;;;;;;;12.30;4.25;;;;;;;;;;10428905;28;20341;-70
2022/03/29 12:20:02;;;;;;;13.73;4.93;;;;;;;;;;10447267;28;20013;-71
2022/03/29 12:25:03;;;;;;;8.65;4.03;;;;;;;;;;10429123;28;20747;-72
2022/03/29 12:30:04;;;;;;;13.80;4.25;;;;;;;;;;10446991;28;20025;-75
2022/03/29 12:35:05;;;;;;;10.50;5.10;;;;;;;;;;10428794;28;20069;-71
2022/03/29 12:40:10;;;;;;;7.68;5.78;;;;;;;;;;10429506;28;20025;-72
2022/03/29 12:45:11;;;;;;;18.45;4.65;;;;;;;;;;10429491;28;20021;-73
2022/03/29 12:50:11;;;;;;;14.15;3.92;;;;;;;;;;10429137;28;20610;-73
2022/03/29 12:55:18;;;;;;;7.20;4.20;;;;;;;;;;10427947;28;20035;-72
2022/03/29 13:00:19;;;;;;;11.00;4.05;;;;;;;;;;10428208;28;20124;-71
2022/03/29 13:05:19;;;;;;;11.77;4.25;;;;;;;;;;10467824;28;20024;-70
2022/03/29 13:10:30;;;;;;;11.87;4.33;;;;;;;;;;10466254;28;20100;-70
2022/03/29 13:15:38;;;;;;;10.98;4.60;;;;;;;;;;10426867;28;20263;-71
2022/03/29 13:20:38;;;;;;;17.08;4.78;;;;;;;;;;10432163;28;20172;-70
2022/03/29 13:25:38;;;;;;;14.43;4.70;;;;;;;;;;10453911;28;20151;-70
2022/03/29 13:30:38;;;;;;;10.52;4.70;;;;;;;;;;10453580;28;20055;-77
2022/03/29 13:35:43;;;;;;;12.57;4.20;;;;;;;;;;10436299;28;20090;-70
2022/03/29 13:40:44;;;;;;;7.55;4.25;;;;;;;;;;10453569;28;20064;-70
2022/03/29 13:45:44;;;;;;;8.23;4.13;;;;;;;;;;10436397;28;20124;-71
2022/03/29 13:50:45;;;;;;;11.07;5.55;;;;;;;;;;10449621;28;20479;-73
2022/03/29 13:55:45;;;;;;;15.40;4.50;;;;;;;;;;10457881;28;20028;-73
2022/03/29 14:00:46;;;;;;;11.88;5.13;;;;;;;;;;10475193;28;20217;-73
2022/03/29 14:05:47;;;;;;;10.73;4.45;;;;;;;;;;10475326;28;20402;-71
2022/03/29 14:10:47;;;;;;;9.52;4.45;;;;;;;;;;10474544;28;20028;-69
2022/03/29 14:15:48;;;;;;;8.57;5.20;;;;;;;;;;10456736;28;20082;-70
2022/03/29 14:20:52;;;;;;;16.67;5.88;;;;;;;;;;10433543;28;20381;-72
2022/03/29 14:25:53;;;;;;;24.77;6.53;;;;;;;;;;10448885;28;20033;-70
2022/03/29 14:30:55;;;;;;;25.45;7.03;;;;;;;;;;10432213;28;20029;-72
2022/03/29 14:35:55;;;;;;;11.85;6.15;;;;;;;;;;10459843;28;20474;-74
2022/03/29 14:40:56;;;;;;;13.30;5.93;;;;;;;;;;10450764;28;20032;-71
2022/03/29 14:45:56;;;;;;;16.92;5.53;;;;;;;;;;10432319;28;20028;-70
2022/03/29 14:50:57;;;;;;;16.60;6.50;;;;;;;;;;10432010;28;20029;-73
2022/03/29 14:55:58;;;;;;;18.35;5.80;;;;;;;;;;10432209;28;20093;-75
2022/03/29 15:00:58;;;;;;;17.65;6.97;;;;;;;;;;10431879;28;20052;-72
2022/03/29 15:05:58;;;;;;;17.13;6.68;;;;;;;;;;10431714;28;20017;-76
2022/03/29 15:10:58;;;;;;;14.82;6.78;;;;;;;;;;10431330;28;20023;-70
2022/03/29 15:15:59;;;;;;;18.70;6.40;;;;;;;;;;10441052;28;20020;-77
2022/03/29 15:20:59;;;;;;;14.43;6.90;;;;;;;;;;10472691;28;20028;-73
2022/03/29 15:25:59;;;;;;;12.52;6.20;;;;;;;;;;10472285;28;20024;-74
2022/03/29 15:31:00;;;;;;;15.20;6.53;;;;;;;;;;10471589;28;20024;-75
2022/03/29 15:36:01;;;;;;;13.30;7.83;;;;;;;;;;10489525;28;20544;-72
2022/03/29 15:41:01;;;;;;;12.77;7.40;;;;;;;;;;10489500;28;20020;-72
2022/03/29 15:46:03;;;;;;;12.77;6.07;;;;;;;;;;10470703;28;20025;-74
2022/03/29 15:51:04;;;;;;;13.40;6.82;;;;;;;;;;10471072;28;20028;-74
2022/03/29 15:56:04;;;;;;;8.23;5.88;;;;;;;;;;10488820;28;20027;-72
2022/03/29 16:01:04;;;;;;;13.43;6.77;;;;;;;;;;10488122;28;20570;-71
2022/03/29 16:06:05;;;;;;;13.80;6.67;;;;;;;;;;10470794;28;20275;-72
2022/03/29 16:11:05;;;;;;;14.63;6.50;;;;;;;;;;10470191;28;20281;-72
2022/03/29 16:16:06;;;;;;;19.75;8.00;;;;;;;;;;10470704;28;20620;-77
2022/03/29 16:21:06;;;;;;;14.82;6.47;;;;;;;;;;10489428;28;20020;-75
2022/03/29 16:26:12;;;;;;;12.07;6.67;;;;;;;;;;10482699;28;20039;-71
2022/03/29 16:31:15;;;;;;;14.57;6.55;;;;;;;;;;10481766;28;20410;-71
2022/03/29 16:36:17;;;;;;;13.27;7.10;;;;;;;;;;10495293;28;20024;-72
2022/03/29 16:41:17;;;;;;;16.75;8.45;;;;;;;;;;10444538;28;20529;-70
2022/03/29 16:46:18;;;;;;;16.40;7.83;;;;;;;;;;10429116;28;20032;-73
2022/03/29 16:51:18;;;;;;;16.47;8.27;;;;;;;;;;10446434;28;20406;-72
2022/03/29 16:56:18;;;;;;;21.47;8.50;;;;;;;;;;10439650;28;20032;-72
2022/03/29 17:01:20;;;;;;;19.95;9.05;;;;;;;;;;10442089;28;20056;-71
2022/03/29 17:06:20;;;;;;;22.80;9.05;;;;;;;;;;10442376;28;20098;-71
2022/03/29 17:11:21;;;;;;;23.65;11.05;;;;;;;;;;10442079;28;20036;-70
2022/03/29 17:16:24;;;;;;;19.05;9.13;;;;;;;;;;10441931;28;20111;-71
2022/03/29 17:21:24;;;;;;;19.67;9.32;;;;;;;;;;10459903;28;20074;-72
2022/03/29 17:26:25;;;;;;;21.15;8.82;;;;;;;;;;10472617;28;20043;-70
2022/03/29 17:31:27;;;;;;;28.55;9.57;;;;;;;;;;10481972;28;20033;-75
2022/03/29 17:36:27;;;;;;;27.13;10.23;;;;;;;;;;10483276;28;20127;-74
2022/03/29 17:41:32;;;;;;;23.83;10.40;;;;;;;;;;10466318;28;20513;-71
2022/03/29 17:46:33;;;;;;;20.17;9.80;;;;;;;;;;10500388;28;20559;-71
2022/03/29 17:51:34;;;;;;;19.85;9.48;;;;;;;;;;10500903;28;20024;-71
2022/03/29 17:56:34;;;;;;;20.63;10.45;;;;;;;;;;10478728;28;20479;-71
2022/03/29 18:01:35;;;;;;;18.92;8.65;;;;;;;;;;10429200;28;20499;-71
2022/03/29 18:06:36;;;;;;;22.17;9.63;;;;;;;;;;10478178;28;20032;-72
2022/03/29 18:11:36;;;;;;;22.02;9.35;;;;;;;;;;10439284;28;20059;-75
2022/03/29 18:16:36;;;;;;;20.75;9.40;;;;;;;;;;10434341;28;20112;-75
2022/03/29 18:21:37;;;;;;;15.17;9.40;;;;;;;;;;10434289;28;20087;-71
2022/03/29 18:26:37;;;;;;;13.95;9.13;;;;;;;;;;10471651;28;20115;-71
2022/03/29 18:31:37;;;;;;;22.97;10.87;;;;;;;;;;10491932;28;20028;-72
2022/03/29 18:36:37;;;;;;;19.63;8.88;;;;;;;;;;10471494;28;20031;-71
2022/03/29 18:41:38;;;;;;;18.75;9.48;;;;;;;;;;10473927;28;20743;-71
2022/03/29 18:46:38;;;;;;;21.90;7.85;;;;;;;;;;10481255;28;20398;-72
2022/03/29 18:51:39;;;;;;;21.38;8.88;;;;;;;;;;10469507;28;20028;-73
2022/03/29 18:56:40;;;;;;;19.92;9.70;;;;;;;;;;10469590;28;20021;-72
2022/03/29 19:01:41;;;;;;;21.67;9.98;;;;;;;;;;10452852;28;20080;-74
2022/03/29 19:06:45;;;;;;;16.95;9.80;;;;;;;;;;10438507;28;20119;-71
2022/03/29 19:11:45;;;;;;;23.73;14.30;;;;;;;;;;10488065;28;20111;-71
2022/03/29 19:16:46;;;;;;;29.03;13.50;;;;;;;;;;10487277;28;20028;-70
2022/03/29 19:21:46;;;;;;;27.47;14.97;;;;;;;;;;10489212;28;20270;-71
2022/03/29 19:26:46;;;;;;;32.00;16.00;;;;;;;;;;10488575;28;20813;-72
2022/03/29 19:31:47;;;;;;;33.42;16.30;;;;;;;;;;10442581;28;20029;-72
2022/03/29 19:36:48;;;;;;;30.03;14.87;;;;;;;;;;10429354;28;20017;-71
2022/03/29 19:41:48;;;;;;;46.17;16.75;;;;;;;;;;10517884;28;20024;-75
2022/03/29 19:46:48;;;;;;;35.27;16.43;;;;;;;;;;10511970;28;20027;-70
2022/03/29 19:51:48;;;;;;;40.65;15.10;;;;;;;;;;10511937;28;20024;-71
2022/03/29 19:56:49;;;;;;;35.90;16.58;;;;;;;;;;10511338;28;20020;-71
2022/03/29 20:01:50;;;;;;;37.30;14.93;;;;;;;;;;10498681;28;20052;-71
2022/03/29 20:06:50;;;;;;;42.42;16.08;;;;;;;;;;10432449;28;20029;-74
2022/03/29 20:11:51;;;;;;;40.97;16.13;;;;;;;;;;10462255;28;20059;-71
2022/03/29 20:16:54;;;;;;;58.88;23.08;;;;;;;;;;10468824;28;20085;-71
2022/03/29 20:21:55;;;;;;;28.58;14.27;;;;;;;;;;10487179;28;20405;-74
2022/03/29 20:26:56;;;;;;;36.00;13.98;;;;;;;;;;10485214;28;20035;-70
2022/03/29 20:31:57;;;;;;;33.70;15.20;;;;;;;;;;10478718;28;20025;-71
2022/03/29 20:36:57;;;;;;;39.28;17.58;;;;;;;;;;10445262;28;20395;-73
2022/03/29 20:41:57;;;;;;;30.03;13.30;;;;;;;;;;10461738;28;20079;-71
2022/03/29 20:46:57;;;;;;;29.55;12.77;;;;;;;;;;10469267;28;20309;-73
2022/03/29 20:51:58;;;;;;;26.52;13.77;;;;;;;;;;10469260;28;20028;-71
2022/03/29 20:56:58;;;;;;;30.67;14.70;;;;;;;;;;10468528;28;20046;-72
2022/03/29 21:01:58;;;;;;;25.40;13.63;;;;;;;;;;10457796;28;20460;-71
2022/03/29 21:06:59;;;;;;;32.92;13.82;;;;;;;;;;10504017;28;20648;-71
2022/03/29 21:11:59;;;;;;;30.37;13.80;;;;;;;;;;10453894;28;20510;-70
2022/03/29 21:17:00;;;;;;;28.77;13.73;;;;;;;;;;10427942;28;20025;-72
2022/03/29 21:22:01;;;;;;;33.00;12.23;;;;;;;;;;10427088;28;20457;-72
2022/03/29 21:27:02;;;;;;;23.40;11.55;;;;;;;;;;10428090;28;20028;-72
2022/03/29 21:32:02;;;;;;;30.95;11.20;;;;;;;;;;10427706;28;20032;-73
2022/03/29 21:37:03;;;;;;;26.93;12.23;;;;;;;;;;10445956;28;20032;-72
2022/03/29 21:42:03;;;;;;;25.33;12.13;;;;;;;;;;10432083;28;20800;-74
2022/03/29 21:47:05;;;;;;;26.63;13.02;;;;;;;;;;10435390;28;20048;-71
2022/03/29 21:52:06;;;;;;;25.73;11.95;;;;;;;;;;10435157;28;20491;-72
2022/03/29 21:57:06;;;;;;;25.77;13.63;;;;;;;;;;10435323;28;20032;-71
2022/03/29 22:02:06;;;;;;;28.43;13.00;;;;;;;;;;10452744;28;20053;-70
2022/03/29 22:07:07;;;;;;;27.47;13.03;;;;;;;;;;10434835;28;20556;-71
2022/03/29 22:12:07;;;;;;;24.52;11.63;;;;;;;;;;10452507;28;20025;-71
2022/03/29 22:17:08;;;;;;;36.00;12.77;;;;;;;;;;10476268;28;20032;-71
2022/03/29 22:22:09;;;;;;;29.95;12.52;;;;;;;;;;10475796;28;20148;-70
2022/03/29 22:27:09;;;;;;;21.80;13.20;;;;;;;;;;10475526;28;20163;-72
2022/03/29 22:32:10;;;;;;;27.23;14.32;;;;;;;;;;10458533;28;20448;-72
2022/03/29 22:37:10;;;;;;;29.75;11.63;;;;;;;;;;10474832;28;20580;-73
2022/03/29 22:42:11;;;;;;;28.85;12.50;;;;;;;;;;10474692;28;20115;-75
2022/03/29 22:47:12;;;;;;;31.42;14.25;;;;;;;;;;10474347;28;20044;-72
2022/03/29 22:52:13;;;;;;;30.30;12.52;;;;;;;;;;10474222;28;20115;-72
2022/03/29 22:57:16;;;;;;;27.58;12.25;;;;;;;;;;10474202;28;20025;-75
2022/03/29 23:02:18;;;;;;;26.98;13.45;;;;;;;;;;10473822;28;20052;-71
2022/03/29 23:07:19;;;;;;;27.08;12.95;;;;;;;;;;10473913;28;20032;-72
2022/03/29 23:12:19;;;;;;;33.03;13.33;;;;;;;;;;10491241;28;20524;-72
2022/03/29 23:17:19;;;;;;;38.57;13.97;;;;;;;;;;10462238;28;20052;-71
2022/03/29 23:22:19;;;;;;;31.17;14.27;;;;;;;;;;10469681;28;20016;-71
2022/03/29 23:27:20;;;;;;;36.67;13.13;;;;;;;;;;10468187;28;20078;-74
2022/03/29 23:32:20;;;;;;;27.57;11.87;;;;;;;;;;10505127;23;20053;-77
2022/03/29 23:37:21;;;;;;;26.50;12.35;;;;;;;;;;10472608;28;20032;-72
2022/03/29 23:42:21;;;;;;;25.77;14.17;;;;;;;;;;10472356;28;20024;-73
2022/03/29 23:47:21;;;;;;;22.35;12.32;;;;;;;;;;10472255;28;20025;-70
2022/03/29 23:52:22;;;;;;;25.97;14.20;;;;;;;;;;10490153;28;20025;-72
2022/03/29 23:57:22;;;;;;;24.35;14.05;;;;;;;;;;10471733;28;20065;-73
